Time;durP1;ratioP1;P1;durP2;ratioP2;P2;SDS_P1;SDS_P2;PMS_P1;PMS_P2;Temp;Humidity;BMP_temperature;BMP_pressure;BME280_temperature;BME280_humidity;BME280_pressure;Samples;Min_cycle;Max_cycle;Signal;HPM_P1;HPM_P2
2022/01/27 00:00:43;;;;;;;77.33;37.60;;;;;;;;;;4926052;29;20254;-73
2022/01/27 00:05:46;;;;;;;78.87;37.87;;;;;;;;;;4921722;29;20230;-73
2022/01/27 00:08:16;;;;;;;84.67;40.10;;;;;;;;;;4903004;29;20228;-73
2022/01/27 00:10:51;;;;;;;85.63;39.40;;;;;;;;;;4918946;29;20232;-73
2022/01/27 00:13:19;;;;;;;75.73;33.40;;;;;;;;;;4918245;29;20234;-73
2022/01/27 00:15:47;;;;;;;80.93;37.17;;;;;;;;;;4919678;29;20306;-73
2022/01/27 00:18:18;;;;;;;70.90;36.80;;;;;;;;;;4917430;28;20701;-74
2022/01/27 00:20:47;;;;;;;70.90;34.67;;;;;;;;;;4935928;29;20215;-72
2022/01/27 00:23:15;;;;;;;82.13;39.33;;;;;;;;;;4905131;28;20220;-73
2022/01/27 00:25:41;;;;;;;63.73;31.77;;;;;;;;;;4904169;29;20630;-72
2022/01/27 00:28:09;;;;;;;68.77;35.83;;;;;;;;;;4920584;28;20245;-71
2022/01/27 00:30:37;;;;;;;76.27;37.47;;;;;;;;;;4906559;29;20238;-71
2022/01/27 00:33:05;;;;;;;74.17;35.67;;;;;;;;;;4935541;29;20722;-75
2022/01/27 00:35:34;;;;;;;76.17;36.90;;;;;;;;;;4934243;29;20772;-74
2022/01/27 00:38:02;;;;;;;72.03;36.67;;;;;;;;;;4950489;28;20230;-75
2022/01/27 00:40:27;;;;;;;75.70;36.33;;;;;;;;;;4953860;28;20679;-73
2022/01/27 00:42:55;;;;;;;69.63;35.50;;;;;;;;;;4907680;29;20223;-72
2022/01/27 00:45:23;;;;;;;67.67;34.40;;;;;;;;;;4919039;29;20310;-73
2022/01/27 00:47:49;;;;;;;73.33;37.60;;;;;;;;;;4947545;28;20257;-72
2022/01/27 00:50:19;;;;;;;58.43;31.43;;;;;;;;;;4905981;28;20227;-72
2022/01/27 00:52:50;;;;;;;66.33;32.77;;;;;;;;;;4907053;29;20290;-72
2022/01/27 00:55:16;;;;;;;72.10;35.90;;;;;;;;;;4900599;29;20231;-73
2022/01/27 01:00:22;;;;;;;62.30;31.23;;;;;;;;;;4928064;29;20306;-72
2022/01/27 01:03:22;;;;;;;72.93;36.97;;;;;;;;;;4919867;29;20717;-73
2022/01/27 01:06:05;;;;;;;68.47;32.07;;;;;;;;;;4902436;29;20303;-72
2022/01/27 01:30:50;;;;;;;53.50;28.97;;;;;;;;;;4943623;29;20231;-73
2022/01/27 01:33:22;;;;;;;53.43;27.83;;;;;;;;;;4949107;28;20230;-73
2022/01/27 01:35:49;;;;;;;53.97;28.37;;;;;;;;;;4958140;28;20219;-73
2022/01/27 01:38:21;;;;;;;51.67;27.17;;;;;;;;;;4913107;29;20730;-73
2022/01/27 01:40:50;;;;;;;50.00;26.87;;;;;;;;;;4904660;29;20224;-73
2022/01/27 01:43:18;;;;;;;48.80;26.50;;;;;;;;;;4906220;28;20219;-73
2022/01/27 01:45:48;;;;;;;47.33;26.47;;;;;;;;;;4941984;29;20278;-73
2022/01/27 01:48:15;;;;;;;40.50;23.73;;;;;;;;;;4929699;29;20637;-72
2022/01/27 01:50:43;;;;;;;44.07;25.37;;;;;;;;;;4919459;29;20239;-72
2022/01/27 01:53:11;;;;;;;40.20;23.57;;;;;;;;;;4918411;29;20220;-72
2022/01/27 01:55:39;;;;;;;47.70;26.17;;;;;;;;;;4888406;29;20443;-72
2022/01/27 01:58:07;;;;;;;45.57;25.20;;;;;;;;;;4898998;28;20234;-75
2022/01/27 02:00:36;;;;;;;49.23;25.97;;;;;;;;;;4940900;29;20231;-74
2022/01/27 02:03:06;;;;;;;45.53;25.43;;;;;;;;;;4932832;29;20224;-71
2022/01/27 02:05:38;;;;;;;43.57;23.97;;;;;;;;;;4904935;29;20269;-72
2022/01/27 02:19:25;;;;;;;44.63;23.60;;;;;;;;;;4950869;28;20234;-74
2022/01/27 02:22:01;;;;;;;38.83;20.73;;;;;;;;;;4922445;29;20302;-72
2022/01/27 02:24:28;;;;;;;41.23;24.30;;;;;;;;;;4933879;29;20686;-72
2022/01/27 02:27:01;;;;;;;40.70;22.03;;;;;;;;;;4891719;29;20215;-72
2022/01/27 02:29:26;;;;;;;45.53;23.10;;;;;;;;;;4892313;29;20639;-71
2022/01/27 02:31:53;;;;;;;43.40;24.50;;;;;;;;;;4942091;29;20314;-72
2022/01/27 02:34:21;;;;;;;41.53;23.67;;;;;;;;;;4970212;28;20234;-72
2022/01/27 02:36:47;;;;;;;40.23;21.73;;;;;;;;;;4918807;28;20241;-73
2022/01/27 02:39:14;;;;;;;43.30;24.53;;;;;;;;;;4931275;28;20226;-72
2022/01/27 02:42:26;;;;;;;41.63;23.60;;;;;;;;;;4930268;29;20223;-72
2022/01/27 02:44:54;;;;;;;37.77;22.30;;;;;;;;;;4919501;29;20611;-72
2022/01/27 02:47:23;;;;;;;35.17;22.93;;;;;;;;;;4919506;29;20236;-72
2022/01/27 02:49:49;;;;;;;45.80;25.87;;;;;;;;;;4962146;28;20246;-73
2022/01/27 02:52:15;;;;;;;41.57;23.93;;;;;;;;;;4940858;28;20245;-72
2022/01/27 02:54:40;;;;;;;36.80;21.17;;;;;;;;;;4910329;29;20228;-72
2022/01/27 02:57:08;;;;;;;41.43;23.73;;;;;;;;;;4943666;29;20291;-72
2022/01/27 02:59:36;;;;;;;35.93;20.63;;;;;;;;;;4915711;29;20218;-72
2022/01/27 03:02:09;;;;;;;41.97;22.70;;;;;;;;;;4953825;28;20247;-74
2022/01/27 03:04:37;;;;;;;38.07;22.17;;;;;;;;;;4926385;29;20222;-75
2022/01/27 03:07:06;;;;;;;39.73;22.17;;;;;;;;;;4957295;28;20297;-73
2022/01/27 03:09:34;;;;;;;36.50;21.60;;;;;;;;;;4929613;29;20224;-72
2022/01/27 03:12:07;;;;;;;38.17;23.43;;;;;;;;;;4918103;29;20331;-72
2022/01/27 03:14:35;;;;;;;41.70;23.23;;;;;;;;;;4902434;29;20233;-72
2022/01/27 03:17:01;;;;;;;37.80;22.70;;;;;;;;;;4941045;28;20611;-72
2022/01/27 03:19:27;;;;;;;44.17;24.87;;;;;;;;;;4932656;29;20219;-74
2022/01/27 03:21:53;;;;;;;43.03;23.20;;;;;;;;;;4952554;29;20349;-74
2022/01/27 03:24:20;;;;;;;44.03;25.37;;;;;;;;;;4952354;29;20235;-72
2022/01/27 03:26:46;;;;;;;37.57;22.80;;;;;;;;;;4936429;29;20215;-73
2022/01/27 03:29:16;;;;;;;43.63;24.43;;;;;;;;;;4946405;28;20231;-73
2022/01/27 03:31:42;;;;;;;45.03;24.63;;;;;;;;;;4956153;29;20235;-73
2022/01/27 03:34:13;;;;;;;37.27;20.80;;;;;;;;;;4954171;28;20290;-74
2022/01/27 03:36:41;;;;;;;40.93;24.10;;;;;;;;;;4921608;29;20345;-73
2022/01/27 03:39:08;;;;;;;40.83;23.40;;;;;;;;;;4905671;28;20751;-73
2022/01/27 03:41:38;;;;;;;45.23;26.40;;;;;;;;;;4955486;29;20852;-74
2022/01/27 03:44:04;;;;;;;38.13;24.20;;;;;;;;;;4939276;28;20223;-74
2022/01/27 03:46:30;;;;;;;45.83;26.73;;;;;;;;;;4902685;29;20607;-73
2022/01/27 03:48:55;;;;;;;40.80;26.10;;;;;;;;;;4917674;29;20309;-73
2022/01/27 03:51:25;;;;;;;40.40;24.07;;;;;;;;;;4935579;28;20234;-73
2022/01/27 03:53:51;;;;;;;41.03;23.13;;;;;;;;;;4955515;29;20317;-73
2022/01/27 03:56:19;;;;;;;33.83;20.20;;;;;;;;;;4904443;29;20232;-73
2022/01/27 03:58:44;;;;;;;36.03;21.30;;;;;;;;;;4903039;29;20224;-73
2022/01/27 04:01:10;;;;;;;41.37;23.87;;;;;;;;;;4929995;28;20266;-75
2022/01/27 04:03:38;;;;;;;41.97;24.47;;;;;;;;;;4956624;29;20306;-74
2022/01/27 04:06:09;;;;;;;44.60;25.00;;;;;;;;;;4942645;28;20835;-73
2022/01/27 04:08:37;;;;;;;34.17;20.33;;;;;;;;;;4921319;29;20227;-73
2022/01/27 04:11:07;;;;;;;41.97;23.30;;;;;;;;;;4930550;28;20317;-73
2022/01/27 04:13:32;;;;;;;34.80;23.30;;;;;;;;;;4938575;29;20219;-73
2022/01/27 04:15:58;;;;;;;42.97;26.07;;;;;;;;;;4903558;29;20251;-74
2022/01/27 04:18:24;;;;;;;41.30;26.10;;;;;;;;;;4946568;29;20243;-73
2022/01/27 04:20:50;;;;;;;34.20;22.67;;;;;;;;;;4903858;29;20607;-73
2022/01/27 04:23:18;;;;;;;41.90;24.70;;;;;;;;;;4933608;29;20218;-73
2022/01/27 04:25:47;;;;;;;38.10;21.50;;;;;;;;;;4933507;29;20254;-73
2022/01/27 04:28:17;;;;;;;37.83;23.53;;;;;;;;;;4949834;29;20236;-73
2022/01/27 04:30:43;;;;;;;43.67;24.97;;;;;;;;;;4901845;29;20228;-73
2022/01/27 04:33:09;;;;;;;44.10;26.97;;;;;;;;;;4900952;29;20788;-73
2022/01/27 04:35:39;;;;;;;34.80;21.23;;;;;;;;;;4923647;29;20289;-72
2022/01/27 04:40:59;;;;;;;44.93;26.17;;;;;;;;;;4932205;29;20223;-73
2022/01/27 04:48:51;;;;;;;44.67;25.37;;;;;;;;;;4902718;29;20696;-72
2022/01/27 04:51:20;;;;;;;38.67;24.00;;;;;;;;;;4922034;28;20238;-72
2022/01/27 04:54:00;;;;;;;34.17;23.43;;;;;;;;;;4945893;28;20215;-72
2022/01/27 04:56:27;;;;;;;38.50;24.53;;;;;;;;;;4945938;28;20230;-72
2022/01/27 04:59:02;;;;;;;41.00;25.13;;;;;;;;;;4936339;29;20223;-72
2022/01/27 05:01:36;;;;;;;43.07;25.47;;;;;;;;;;4924766;29;20223;-73
2022/01/27 05:04:14;;;;;;;44.27;26.33;;;;;;;;;;4946206;29;20292;-73
2022/01/27 05:06:40;;;;;;;39.60;22.93;;;;;;;;;;4948791;29;20231;-72
2022/01/27 05:09:06;;;;;;;39.70;25.77;;;;;;;;;;4928270;29;20351;-73
2022/01/27 05:11:45;;;;;;;40.87;25.10;;;;;;;;;;4941359;29;20231;-72
2022/01/27 05:14:23;;;;;;;40.87;24.47;;;;;;;;;;4936849;29;20362;-73
2022/01/27 05:16:52;;;;;;;42.10;25.50;;;;;;;;;;4925338;29;20705;-72
2022/01/27 05:19:20;;;;;;;41.47;27.07;;;;;;;;;;4924473;28;20223;-72
2022/01/27 05:21:48;;;;;;;40.57;27.93;;;;;;;;;;4938760;28;20274;-72
2022/01/27 05:24:14;;;;;;;42.37;25.33;;;;;;;;;;4939067;29;20219;-72
2022/01/27 05:26:40;;;;;;;43.50;25.57;;;;;;;;;;4946241;29;20313;-72
2022/01/27 05:29:06;;;;;;;38.03;24.33;;;;;;;;;;4916285;29;20220;-73
2022/01/27 05:31:34;;;;;;;48.93;28.00;;;;;;;;;;4936671;29;20261;-72
2022/01/27 05:34:03;;;;;;;41.50;24.87;;;;;;;;;;4936461;29;20251;-74
2022/01/27 05:36:28;;;;;;;45.57;28.53;;;;;;;;;;4919158;29;20245;-72
2022/01/27 05:38:59;;;;;;;56.97;30.93;;;;;;;;;;4919000;29;20238;-72
2022/01/27 05:41:24;;;;;;;46.30;28.90;;;;;;;;;;4925255;28;20225;-73
2022/01/27 05:43:55;;;;;;;43.33;27.77;;;;;;;;;;4957013;29;20226;-73
2022/01/27 05:46:23;;;;;;;47.33;29.57;;;;;;;;;;4954617;28;20226;-72
2022/01/27 05:48:51;;;;;;;47.77;27.43;;;;;;;;;;4939896;28;20614;-73
2022/01/27 05:51:21;;;;;;;48.40;28.60;;;;;;;;;;4905812;28;20228;-73
2022/01/27 05:53:51;;;;;;;47.33;28.70;;;;;;;;;;4957778;28;20720;-73
2022/01/27 05:56:19;;;;;;;48.37;29.43;;;;;;;;;;4955127;28;20906;-73
2022/01/27 05:58:45;;;;;;;48.13;30.43;;;;;;;;;;4936283;28;20220;-72
2022/01/27 06:01:15;;;;;;;54.77;31.27;;;;;;;;;;4913106;29;20683;-73
2022/01/27 06:03:43;;;;;;;43.93;27.60;;;;;;;;;;4920882;29;20223;-73
2022/01/27 06:06:08;;;;;;;47.00;30.40;;;;;;;;;;4920660;29;20934;-72
2022/01/27 06:08:34;;;;;;;52.37;32.37;;;;;;;;;;4938205;29;20237;-73
2022/01/27 06:10:59;;;;;;;53.57;30.63;;;;;;;;;;4924744;29;20258;-74
2022/01/27 06:13:25;;;;;;;46.10;28.90;;;;;;;;;;4939676;28;20577;-74
2022/01/27 06:15:51;;;;;;;51.27;29.73;;;;;;;;;;4937690;29;20223;-74
2022/01/27 06:18:19;;;;;;;46.93;28.80;;;;;;;;;;4920458;29;20236;-73
2022/01/27 06:20:46;;;;;;;49.90;31.57;;;;;;;;;;4933054;29;20954;-73
2022/01/27 06:23:14;;;;;;;44.33;28.00;;;;;;;;;;4937186;29;20246;-75
2022/01/27 06:25:40;;;;;;;51.00;30.23;;;;;;;;;;4936736;29;20248;-75
2022/01/27 06:28:08;;;;;;;47.80;30.80;;;;;;;;;;4915677;29;20228;-75
2022/01/27 06:30:36;;;;;;;38.27;25.70;;;;;;;;;;4919676;29;20231;-75
2022/01/27 06:33:05;;;;;;;47.97;28.20;;;;;;;;;;4935424;29;20665;-76
2022/01/27 06:35:31;;;;;;;50.40;30.27;;;;;;;;;;4904358;29;20223;-74
2022/01/27 06:37:56;;;;;;;43.87;28.23;;;;;;;;;;4945514;29;20227;-74
2022/01/27 06:40:31;;;;;;;43.20;26.83;;;;;;;;;;4923185;29;20338;-73
2022/01/27 06:42:56;;;;;;;40.97;23.87;;;;;;;;;;4934127;28;20305;-73
2022/01/27 06:45:22;;;;;;;43.67;28.13;;;;;;;;;;4898929;29;20231;-73
2022/01/27 06:47:50;;;;;;;46.73;30.00;;;;;;;;;;4929739;29;20224;-72
2022/01/27 06:50:19;;;;;;;51.13;29.70;;;;;;;;;;4954872;28;20325;-73
2022/01/27 06:52:50;;;;;;;46.33;29.17;;;;;;;;;;4933276;29;20223;-73
2022/01/27 06:55:20;;;;;;;43.90;26.70;;;;;;;;;;4934190;29;20740;-73
2022/01/27 06:57:50;;;;;;;43.13;27.17;;;;;;;;;;4925730;29;20218;-73
2022/01/27 07:00:16;;;;;;;42.67;25.83;;;;;;;;;;4953437;28;20226;-73
2022/01/27 07:02:44;;;;;;;43.20;26.77;;;;;;;;;;4952154;28;20789;-73
2022/01/27 07:05:13;;;;;;;42.03;26.57;;;;;;;;;;4903299;28;20446;-73
2022/01/27 07:07:39;;;;;;;42.17;26.93;;;;;;;;;;4905551;29;20230;-73
2022/01/27 07:10:05;;;;;;;41.43;26.80;;;;;;;;;;4937634;28;20223;-72
2022/01/27 07:12:33;;;;;;;37.47;26.43;;;;;;;;;;4937214;29;20350;-73
2022/01/27 07:14:59;;;;;;;39.40;25.17;;;;;;;;;;4918783;29;20318;-73
2022/01/27 07:17:25;;;;;;;40.37;26.40;;;;;;;;;;4934071;29;20227;-73
2022/01/27 07:19:57;;;;;;;44.60;26.13;;;;;;;;;;4937731;29;20305;-73
2022/01/27 07:22:25;;;;;;;41.87;25.73;;;;;;;;;;4951965;28;20226;-73
2022/01/27 07:24:51;;;;;;;43.57;27.00;;;;;;;;;;4916848;29;20609;-74
2022/01/27 07:27:19;;;;;;;39.50;24.10;;;;;;;;;;4934548;29;20241;-73
2022/01/27 07:29:45;;;;;;;37.60;23.27;;;;;;;;;;4949924;29;20222;-74
2022/01/27 07:32:13;;;;;;;37.07;24.20;;;;;;;;;;4951900;28;20246;-73
2022/01/27 07:34:39;;;;;;;32.00;21.57;;;;;;;;;;4923825;29;20227;-73
2022/01/27 07:37:07;;;;;;;36.83;24.57;;;;;;;;;;4916865;28;20293;-73
2022/01/27 07:39:33;;;;;;;38.03;24.20;;;;;;;;;;4915911;29;20222;-73
2022/01/27 07:42:00;;;;;;;38.57;24.27;;;;;;;;;;4936222;29;20735;-73
2022/01/27 07:44:33;;;;;;;34.93;23.40;;;;;;;;;;4925558;29;20226;-73
2022/01/27 07:47:01;;;;;;;37.83;25.23;;;;;;;;;;4934309;29;20220;-73
2022/01/27 07:49:28;;;;;;;34.50;23.10;;;;;;;;;;4944540;28;20704;-73
2022/01/27 07:51:55;;;;;;;36.20;23.07;;;;;;;;;;4954091;28;20317;-74
2022/01/27 07:54:20;;;;;;;34.60;22.13;;;;;;;;;;4898396;29;20223;-75
2022/01/27 07:56:48;;;;;;;37.00;23.43;;;;;;;;;;4916711;29;20307;-74
2022/01/27 07:59:14;;;;;;;35.73;23.27;;;;;;;;;;4932661;29;20632;-74
2022/01/27 08:01:40;;;;;;;39.13;24.60;;;;;;;;;;4918203;29;20302;-73
2022/01/27 08:04:06;;;;;;;39.30;23.47;;;;;;;;;;4933517;29;20282;-74
2022/01/27 08:06:31;;;;;;;34.23;22.20;;;;;;;;;;4908395;29;20298;-72
2022/01/27 08:09:00;;;;;;;35.10;22.03;;;;;;;;;;4933605;29;20223;-73
2022/01/27 08:11:28;;;;;;;34.17;22.60;;;;;;;;;;4920273;29;20266;-73
2022/01/27 08:13:53;;;;;;;30.10;20.80;;;;;;;;;;4917700;29;20238;-73
2022/01/27 08:16:21;;;;;;;39.20;25.37;;;;;;;;;;4932037;28;20225;-73
2022/01/27 08:18:47;;;;;;;38.47;23.93;;;;;;;;;;4936484;28;20223;-73
2022/01/27 08:21:15;;;;;;;38.63;24.33;;;;;;;;;;4950877;28;20282;-73
2022/01/27 08:23:43;;;;;;;37.43;23.57;;;;;;;;;;4937543;29;20227;-73
2022/01/27 08:26:13;;;;;;;34.20;21.50;;;;;;;;;;4933068;28;20230;-74
2022/01/27 08:28:47;;;;;;;33.23;21.17;;;;;;;;;;4916095;29;20231;-72
2022/01/27 08:31:15;;;;;;;32.73;20.80;;;;;;;;;;4914872;29;20275;-72
2022/01/27 08:33:41;;;;;;;34.43;22.07;;;;;;;;;;4903579;29;20227;-73
2022/01/27 08:36:07;;;;;;;28.80;19.60;;;;;;;;;;4896410;29;20323;-72
2022/01/27 08:38:33;;;;;;;32.77;21.37;;;;;;;;;;4916167;29;20242;-74
2022/01/27 08:41:01;;;;;;;34.93;22.07;;;;;;;;;;4939277;29;20238;-75
2022/01/27 08:43:29;;;;;;;32.77;19.97;;;;;;;;;;4889713;29;20224;-73
2022/01/27 08:45:59;;;;;;;29.80;19.87;;;;;;;;;;4934025;29;20223;-74
2022/01/27 08:48:27;;;;;;;25.73;18.27;;;;;;;;;;4907663;29;20247;-73
2022/01/27 08:51:00;;;;;;;31.23;21.33;;;;;;;;;;4930738;29;20242;-73
2022/01/27 08:53:26;;;;;;;30.07;19.83;;;;;;;;;;4917066;28;20242;-73
2022/01/27 08:55:52;;;;;;;31.67;19.43;;;;;;;;;;4896585;29;20231;-73
2022/01/27 08:58:18;;;;;;;31.60;20.50;;;;;;;;;;4932382;29;20241;-73
2022/01/27 09:00:46;;;;;;;29.63;19.70;;;;;;;;;;4915728;29;20267;-73
2022/01/27 09:03:14;;;;;;;27.27;19.00;;;;;;;;;;4932727;29;20227;-73
2022/01/27 09:05:43;;;;;;;27.97;19.20;;;;;;;;;;4920527;29;20230;-73
2022/01/27 09:08:08;;;;;;;24.63;17.07;;;;;;;;;;4951111;28;20237;-73
2022/01/27 09:10:34;;;;;;;25.00;15.47;;;;;;;;;;4907043;29;20232;-73
2022/01/27 09:13:01;;;;;;;27.53;18.73;;;;;;;;;;4916399;29;20834;-73
2022/01/27 09:15:29;;;;;;;35.23;23.20;;;;;;;;;;4896573;29;20219;-73
2022/01/27 09:17:58;;;;;;;21.93;16.30;;;;;;;;;;4912386;29;20215;-72
2022/01/27 09:20:29;;;;;;;28.13;17.73;;;;;;;;;;4931994;28;20323;-72
2022/01/27 09:23:02;;;;;;;21.17;14.37;;;;;;;;;;4912403;29;20212;-73
2022/01/27 09:25:40;;;;;;;21.57;16.83;;;;;;;;;;4917167;29;20230;-73
2022/01/27 09:28:10;;;;;;;17.00;12.20;;;;;;;;;;4919473;28;20238;-72
2022/01/27 09:30:39;;;;;;;17.77;13.27;;;;;;;;;;4933621;29;20230;-73
2022/01/27 09:33:05;;;;;;;18.90;13.43;;;;;;;;;;4919469;28;20226;-73
2022/01/27 09:35:31;;;;;;;22.50;16.60;;;;;;;;;;4911955;29;20232;-73
2022/01/27 09:37:58;;;;;;;22.73;14.83;;;;;;;;;;4882817;29;20224;-74
2022/01/27 09:40:28;;;;;;;17.60;13.27;;;;;;;;;;4920780;28;20237;-75
2022/01/27 09:42:59;;;;;;;18.33;14.23;;;;;;;;;;4951408;29;20685;-74
2022/01/27 09:45:35;;;;;;;22.57;14.73;;;;;;;;;;4949293;28;20492;-73
2022/01/27 09:48:12;;;;;;;20.37;14.60;;;;;;;;;;4903108;29;20231;-75
2022/01/27 09:53:25;;;;;;;17.57;13.83;;;;;;;;;;4941196;28;20245;-73
2022/01/27 09:55:53;;;;;;;16.70;10.93;;;;;;;;;;4934617;29;20226;-73
2022/01/27 09:58:22;;;;;;;12.40;10.20;;;;;;;;;;4890648;28;20239;-73
2022/01/27 10:00:48;;;;;;;15.57;11.47;;;;;;;;;;4924754;29;20222;-73
2022/01/27 10:03:14;;;;;;;13.47;10.23;;;;;;;;;;4938329;28;20603;-74
2022/01/27 10:05:42;;;;;;;12.10;9.40;;;;;;;;;;4936187;29;20283;-73
2022/01/27 10:08:16;;;;;;;13.67;10.23;;;;;;;;;;4919510;28;20290;-73
2022/01/27 10:10:46;;;;;;;12.73;10.73;;;;;;;;;;4907412;29;20304;-73
2022/01/27 10:13:30;;;;;;;11.87;9.40;;;;;;;;;;4906960;28;20648;-73
2022/01/27 10:15:56;;;;;;;13.00;9.53;;;;;;;;;;4951581;28;20307;-73
2022/01/27 10:18:26;;;;;;;13.90;10.43;;;;;;;;;;4918654;28;20713;-72
2022/01/27 10:21:08;;;;;;;12.97;10.07;;;;;;;;;;4922019;29;20600;-72
2022/01/27 10:23:36;;;;;;;15.57;10.70;;;;;;;;;;4922303;29;20229;-74
2022/01/27 10:26:18;;;;;;;13.40;10.43;;;;;;;;;;4904464;28;20207;-74
2022/01/27 10:28:48;;;;;;;13.37;9.70;;;;;;;;;;4925266;29;20227;-72
2022/01/27 10:31:23;;;;;;;14.70;11.57;;;;;;;;;;4917547;29;20224;-73
2022/01/27 10:34:02;;;;;;;12.60;10.67;;;;;;;;;;4934836;29;20222;-73
2022/01/27 10:36:41;;;;;;;11.83;9.57;;;;;;;;;;4923797;29;20219;-73
2022/01/27 10:39:16;;;;;;;12.17;9.53;;;;;;;;;;4938422;28;20246;-74
2022/01/27 10:42:00;;;;;;;12.97;10.40;;;;;;;;;;4912600;29;20228;-73
2022/01/27 10:44:37;;;;;;;15.53;11.33;;;;;;;;;;4884495;29;20691;-72
2022/01/27 10:47:12;;;;;;;13.77;9.97;;;;;;;;;;4899837;28;20261;-73
2022/01/27 10:49:44;;;;;;;14.00;10.60;;;;;;;;;;4954033;29;20225;-74
2022/01/27 10:52:20;;;;;;;14.87;10.50;;;;;;;;;;4909669;29;20347;-73
2022/01/27 10:54:55;;;;;;;16.93;10.70;;;;;;;;;;4934492;29;20227;-75
2022/01/27 10:57:24;;;;;;;15.60;11.10;;;;;;;;;;4937253;28;20261;-72
2022/01/27 10:59:53;;;;;;;13.07;10.10;;;;;;;;;;4936734;29;20211;-72
2022/01/27 11:02:21;;;;;;;10.67;8.87;;;;;;;;;;4928854;28;20302;-73
2022/01/27 11:04:49;;;;;;;10.83;8.93;;;;;;;;;;4903604;29;20815;-73
2022/01/27 11:07:16;;;;;;;11.93;9.90;;;;;;;;;;4925476;28;20313;-74
2022/01/27 11:09:44;;;;;;;12.07;10.40;;;;;;;;;;4937908;29;20223;-73
2022/01/27 11:12:18;;;;;;;12.83;10.23;;;;;;;;;;4931005;28;20255;-73
2022/01/27 11:14:50;;;;;;;12.93;10.33;;;;;;;;;;4934282;28;20223;-73
2022/01/27 11:17:19;;;;;;;11.10;9.40;;;;;;;;;;4923449;28;20234;-74
2022/01/27 11:22:42;;;;;;;11.60;9.47;;;;;;;;;;4946684;28;20678;-74
2022/01/27 11:27:43;;;;;;;14.60;11.30;;;;;;;;;;4941398;28;20230;-73
2022/01/27 11:30:32;;;;;;;12.40;10.60;;;;;;;;;;4936761;28;20635;-73
2022/01/27 11:33:06;;;;;;;13.50;10.17;;;;;;;;;;4912968;29;20238;-75
2022/01/27 11:35:36;;;;;;;16.27;11.40;;;;;;;;;;4937326;28;20234;-73
2022/01/27 11:38:08;;;;;;;16.90;12.23;;;;;;;;;;4923979;29;20228;-73
2022/01/27 11:40:41;;;;;;;15.63;11.77;;;;;;;;;;4927938;29;20250;-73
2022/01/27 11:43:19;;;;;;;23.10;14.43;;;;;;;;;;4891636;29;20231;-73
2022/01/27 11:45:48;;;;;;;16.50;12.03;;;;;;;;;;4898205;29;20223;-72
2022/01/27 11:48:27;;;;;;;16.93;11.77;;;;;;;;;;4926870;28;20285;-73
2022/01/27 11:51:13;;;;;;;19.23;13.20;;;;;;;;;;4953121;28;20329;-73
2022/01/27 11:53:43;;;;;;;18.77;13.43;;;;;;;;;;4940077;28;20252;-73
2022/01/27 11:56:24;;;;;;;21.63;15.03;;;;;;;;;;4936027;29;20747;-73
2022/01/27 11:58:55;;;;;;;21.30;16.13;;;;;;;;;;4927055;29;20227;-74
2022/01/27 12:01:36;;;;;;;20.93;15.97;;;;;;;;;;4917680;29;20770;-73
2022/01/27 12:04:02;;;;;;;20.83;15.70;;;;;;;;;;4916525;29;20247;-73
2022/01/27 12:06:53;;;;;;;20.90;15.17;;;;;;;;;;4932197;29;20257;-73
2022/01/27 12:09:18;;;;;;;22.27;13.77;;;;;;;;;;4937866;28;20794;-74
2022/01/27 12:11:50;;;;;;;22.43;15.77;;;;;;;;;;4951241;28;20235;-74
2022/01/27 12:14:42;;;;;;;21.67;15.17;;;;;;;;;;4919055;29;20220;-72
2022/01/27 12:17:07;;;;;;;23.43;15.87;;;;;;;;;;4878908;29;20231;-73
2022/01/27 12:19:46;;;;;;;22.83;14.70;;;;;;;;;;4945752;29;20277;-74
2022/01/27 12:22:14;;;;;;;21.33;14.33;;;;;;;;;;4951387;28;20709;-72
2022/01/27 12:24:49;;;;;;;18.73;13.90;;;;;;;;;;4901443;29;20227;-73
2022/01/27 12:27:18;;;;;;;25.03;16.47;;;;;;;;;;4905054;29;20230;-73
2022/01/27 12:29:53;;;;;;;20.73;13.70;;;;;;;;;;4930874;29;20227;-74
2022/01/27 12:32:21;;;;;;;20.20;14.00;;;;;;;;;;4916110;29;20244;-73
2022/01/27 12:34:53;;;;;;;18.93;13.23;;;;;;;;;;4917358;29;20219;-75
2022/01/27 12:37:25;;;;;;;23.37;16.20;;;;;;;;;;4913243;29;20301;-73
2022/01/27 12:39:58;;;;;;;18.63;14.03;;;;;;;;;;4929212;29;20215;-74
2022/01/27 12:42:29;;;;;;;18.67;13.53;;;;;;;;;;4924014;29;20758;-74
2022/01/27 12:45:10;;;;;;;18.20;12.40;;;;;;;;;;4881759;29;20215;-73
2022/01/27 12:47:43;;;;;;;21.80;13.23;;;;;;;;;;4932952;29;20223;-72
2022/01/27 12:50:18;;;;;;;18.63;12.53;;;;;;;;;;4931925;28;20234;-74
2022/01/27 12:52:47;;;;;;;19.47;14.90;;;;;;;;;;4882421;29;20227;-73
2022/01/27 12:55:15;;;;;;;22.37;14.20;;;;;;;;;;4923311;29;20228;-73
2022/01/27 12:57:44;;;;;;;16.63;12.20;;;;;;;;;;4899097;29;20227;-73
2022/01/27 13:00:11;;;;;;;21.90;13.37;;;;;;;;;;4928616;28;20226;-74
2022/01/27 13:02:38;;;;;;;17.83;11.43;;;;;;;;;;4936809;29;20281;-73
2022/01/27 13:05:04;;;;;;;23.17;15.13;;;;;;;;;;4919851;28;20310;-74
2022/01/27 13:07:34;;;;;;;17.93;12.10;;;;;;;;;;4918123;29;20231;-73
2022/01/27 13:10:09;;;;;;;21.93;13.77;;;;;;;;;;4915540;29;20305;-72
2022/01/27 13:12:44;;;;;;;20.53;13.63;;;;;;;;;;4914302;29;20246;-73
2022/01/27 13:15:14;;;;;;;19.90;12.97;;;;;;;;;;4916786;29;20225;-74
2022/01/27 13:17:52;;;;;;;17.63;11.83;;;;;;;;;;4930671;29;20279;-74
2022/01/27 13:20:42;;;;;;;20.67;12.43;;;;;;;;;;4901639;29;20234;-74
2022/01/27 13:23:15;;;;;;;21.30;12.00;;;;;;;;;;4920151;29;20223;-71
2022/01/27 13:25:47;;;;;;;25.03;13.13;;;;;;;;;;4953604;29;20280;-71
2022/01/27 13:28:17;;;;;;;27.00;13.03;;;;;;;;;;4939730;28;20230;-75
2022/01/27 13:30:43;;;;;;;23.23;13.57;;;;;;;;;;4913284;29;20229;-75
2022/01/27 13:33:14;;;;;;;24.73;13.57;;;;;;;;;;4932522;29;20232;-74
2022/01/27 13:35:40;;;;;;;23.97;12.57;;;;;;;;;;4934152;29;20231;-74
2022/01/27 13:38:21;;;;;;;19.97;12.93;;;;;;;;;;4932780;29;20251;-74
2022/01/27 13:41:22;;;;;;;21.50;11.67;;;;;;;;;;4937665;29;20226;-73
2022/01/27 13:44:05;;;;;;;23.17;12.00;;;;;;;;;;4946472;29;20226;-74
2022/01/27 13:46:48;;;;;;;20.10;11.57;;;;;;;;;;4934000;29;20639;-71
2022/01/27 13:49:18;;;;;;;22.87;11.53;;;;;;;;;;4905647;28;20227;-73
2022/01/27 13:51:50;;;;;;;21.13;11.63;;;;;;;;;;4941654;29;20228;-73
2022/01/27 13:54:15;;;;;;;19.67;10.93;;;;;;;;;;4916488;29;20234;-74
2022/01/27 13:56:49;;;;;;;21.40;10.47;;;;;;;;;;4936168;29;20626;-75
2022/01/27 13:59:20;;;;;;;19.87;9.70;;;;;;;;;;4905799;29;20246;-74
2022/01/27 14:01:51;;;;;;;12.67;7.37;;;;;;;;;;4933398;28;20733;-72
2022/01/27 14:04:21;;;;;;;17.67;9.00;;;;;;;;;;4920036;29;20314;-74
2022/01/27 14:06:53;;;;;;;21.27;9.00;;;;;;;;;;4918721;29;20231;-74
2022/01/27 14:09:22;;;;;;;17.13;7.30;;;;;;;;;;4908505;29;20235;-75
2022/01/27 14:11:59;;;;;;;19.07;7.27;;;;;;;;;;4940932;29;20618;-73
2022/01/27 14:14:45;;;;;;;17.60;7.90;;;;;;;;;;4928697;29;20655;-73
2022/01/27 14:17:25;;;;;;;13.57;5.60;;;;;;;;;;4912726;29;20314;-72
2022/01/27 14:19:51;;;;;;;11.57;6.37;;;;;;;;;;4929492;28;20245;-73
2022/01/27 14:22:24;;;;;;;15.60;5.87;;;;;;;;;;4914558;29;20648;-74
2022/01/27 14:24:57;;;;;;;15.60;5.60;;;;;;;;;;4911540;29;20219;-72
2022/01/27 14:27:39;;;;;;;14.27;4.83;;;;;;;;;;4933257;29;20223;-71
2022/01/27 14:30:11;;;;;;;15.37;4.97;;;;;;;;;;4904665;29;20306;-73
2022/01/27 14:32:37;;;;;;;12.83;4.40;;;;;;;;;;4897919;29;20721;-73
2022/01/27 14:35:07;;;;;;;15.97;4.90;;;;;;;;;;4932614;28;20701;-73
2022/01/27 14:37:35;;;;;;;15.67;4.70;;;;;;;;;;4917832;29;20224;-73
2022/01/27 14:40:03;;;;;;;13.20;5.20;;;;;;;;;;4916719;29;20298;-73
2022/01/27 14:42:32;;;;;;;17.10;4.80;;;;;;;;;;4934904;29;20231;-73
2022/01/27 14:45:01;;;;;;;14.77;4.97;;;;;;;;;;4935135;29;20247;-74
2022/01/27 14:47:27;;;;;;;15.67;4.63;;;;;;;;;;4934426;29;20230;-73
2022/01/27 14:49:55;;;;;;;12.97;4.20;;;;;;;;;;4944530;29;20286;-73
2022/01/27 14:52:27;;;;;;;17.53;4.13;;;;;;;;;;4931792;29;20227;-74
2022/01/27 14:54:53;;;;;;;15.80;4.20;;;;;;;;;;4920357;29;20235;-73
2022/01/27 14:57:19;;;;;;;14.10;3.80;;;;;;;;;;4966267;28;20231;-73
2022/01/27 14:59:45;;;;;;;11.90;3.73;;;;;;;;;;4960448;29;20223;-72
2022/01/27 15:02:12;;;;;;;11.50;3.60;;;;;;;;;;4919993;29;20964;-73
2022/01/27 15:04:38;;;;;;;16.70;4.03;;;;;;;;;;4901680;29;20232;-74
2022/01/27 15:07:04;;;;;;;15.77;3.57;;;;;;;;;;4945346;28;20234;-74
2022/01/27 15:09:32;;;;;;;13.33;3.43;;;;;;;;;;4938520;29;20243;-73
2022/01/27 15:11:58;;;;;;;10.63;3.27;;;;;;;;;;4924884;29;20310;-73
2022/01/27 15:19:55;;;;;;;11.63;3.10;;;;;;;;;;4954959;28;20215;-72
2022/01/27 15:22:27;;;;;;;15.33;2.93;;;;;;;;;;4917022;29;20231;-72
2022/01/27 15:24:54;;;;;;;15.97;3.93;;;;;;;;;;4915888;29;20722;-73
2022/01/27 15:27:25;;;;;;;16.43;3.40;;;;;;;;;;4943086;28;20245;-73
2022/01/27 15:29:50;;;;;;;10.37;2.80;;;;;;;;;;4954470;28;20232;-73
2022/01/27 15:32:19;;;;;;;12.70;3.37;;;;;;;;;;4903908;29;20247;-72
2022/01/27 15:34:45;;;;;;;11.83;3.03;;;;;;;;;;4934078;29;20220;-73